Time;durP1;ratioP1;P1;durP2;ratioP2;P2;SDS_P1;SDS_P2;PMS_P1;PMS_P2;Temp;Humidity;BMP_temperature;BMP_pressure;BME280_temperature;BME280_humidity;BME280_pressure;Samples;Min_cycle;Max_cycle;Signal;HPM_P1;HPM_P2
2022/07/19 00:00:48;;;;;;;1.50;1.40;;;23.70;47.20;;;;;;5067986;28;20202;-59
2022/07/19 00:03:17;;;;;;;1.50;1.40;;;23.70;47.20;;;;;;5072550;28;20195;-61
2022/07/19 00:05:44;;;;;;;1.40;1.30;;;23.70;47.10;;;;;;5069955;28;20452;-66
2022/07/19 00:08:10;;;;;;;1.60;1.50;;;23.70;47.10;;;;;;5063548;28;20851;-66
2022/07/19 00:10:37;;;;;;;2.10;1.90;;;23.70;47.10;;;;;;5072928;28;20433;-71
2022/07/19 00:13:03;;;;;;;1.50;1.40;;;23.70;47.10;;;;;;5066130;28;20441;-60
2022/07/19 00:15:29;;;;;;;1.67;1.57;;;23.70;47.10;;;;;;5062056;28;20571;-59
2022/07/19 00:17:55;;;;;;;1.63;1.53;;;23.70;47.10;;;;;;5067368;28;22415;-56
2022/07/19 00:20:22;;;;;;;1.50;1.40;;;23.70;47.10;;;;;;5068306;28;20457;-59
2022/07/19 00:22:48;;;;;;;1.60;1.50;;;23.70;47.20;;;;;;5067980;28;20189;-57
2022/07/19 00:25:14;;;;;;;1.93;1.40;;;23.70;47.20;;;;;;5069408;28;20460;-62
2022/07/19 00:27:41;;;;;;;1.70;1.60;;;23.70;47.20;;;;;;5066685;28;20563;-58
2022/07/19 00:30:07;;;;;;;1.70;1.60;;;23.70;47.20;;;;;;5061797;28;20204;-58
2022/07/19 00:32:33;;;;;;;1.53;1.43;;;23.70;47.20;;;;;;5063556;28;20444;-68
2022/07/19 00:34:59;;;;;;;1.47;1.37;;;23.70;47.20;;;;;;5066735;28;20437;-64
2022/07/19 00:37:25;;;;;;;1.53;1.43;;;23.70;47.20;;;;;;5068977;28;20174;-61
2022/07/19 00:39:50;;;;;;;1.50;1.40;;;23.70;47.20;;;;;;5071230;28;20850;-64
2022/07/19 00:42:18;;;;;;;1.40;1.30;;;23.70;48.00;;;;;;5065227;28;20256;-66
2022/07/19 00:44:44;;;;;;;1.50;1.40;;;23.70;47.20;;;;;;5068308;28;20212;-61
2022/07/19 00:47:10;;;;;;;1.60;1.50;;;23.70;47.20;;;;;;5062279;28;20486;-63
2022/07/19 00:49:35;;;;;;;1.53;1.43;;;23.70;47.20;;;;;;5061179;28;20426;-58
2022/07/19 00:52:03;;;;;;;1.97;1.87;;;23.70;47.20;;;;;;5062534;28;22097;-59
2022/07/19 00:54:33;;;;;;;1.93;1.83;;;23.70;47.20;;;;;;5062145;28;20208;-67
2022/07/19 00:57:00;;;;;;;1.63;1.53;;;23.70;47.20;;;;;;5073690;28;20566;-58
2022/07/19 00:59:26;;;;;;;1.93;1.83;;;23.70;47.20;;;;;;5062067;28;20442;-61
2022/07/19 01:01:55;;;;;;;1.50;1.40;;;23.70;47.30;;;;;;5066651;28;20440;-73
2022/07/19 01:04:21;;;;;;;1.70;1.60;;;23.70;47.20;;;;;;5062420;28;20528;-68
2022/07/19 01:06:47;;;;;;;1.67;1.57;;;23.70;47.20;;;;;;5064381;28;20448;-61
2022/07/19 01:09:14;;;;;;;1.70;1.60;;;23.70;47.20;;;;;;5062933;28;20173;-69
2022/07/19 01:11:40;;;;;;;1.60;1.50;;;23.80;47.30;;;;;;5071165;28;20430;-60
2022/07/19 01:14:06;;;;;;;1.50;1.40;;;23.70;47.20;;;;;;5063613;28;20655;-70
2022/07/19 01:16:32;;;;;;;1.63;1.53;;;23.70;47.20;;;;;;5062982;28;20433;-59
2022/07/19 01:18:59;;;;;;;1.90;1.80;;;23.70;47.20;;;;;;5061215;28;20465;-60
2022/07/19 01:21:26;;;;;;;1.93;1.83;;;23.70;47.30;;;;;;5060961;28;20215;-60
2022/07/19 01:23:53;;;;;;;1.90;1.80;;;23.80;47.40;;;;;;5069345;28;20430;-59
2022/07/19 01:26:19;;;;;;;1.70;1.60;;;23.70;47.30;;;;;;5068425;28;20907;-58
2022/07/19 01:28:47;;;;;;;1.90;1.80;;;23.70;47.30;;;;;;5064399;28;20435;-73
2022/07/19 01:31:13;;;;;;;1.70;1.60;;;23.70;47.30;;;;;;5060035;28;20181;-60
2022/07/19 01:33:40;;;;;;;1.60;1.50;;;23.70;47.30;;;;;;5065010;28;20432;-58
2022/07/19 01:36:07;;;;;;;2.00;1.53;;;23.70;47.30;;;;;;5061525;28;20242;-72
2022/07/19 01:38:32;;;;;;;1.60;1.50;;;23.70;47.30;;;;;;5061216;28;20430;-65
2022/07/19 01:40:58;;;;;;;1.77;1.67;;;23.80;47.40;;;;;;5060832;28;20469;-71
2022/07/19 01:43:24;;;;;;;1.87;1.77;;;23.70;47.30;;;;;;5070662;28;20529;-59
2022/07/19 01:45:49;;;;;;;1.80;1.70;;;23.70;47.20;;;;;;5063062;28;20182;-60
2022/07/19 01:48:16;;;;;;;1.90;1.80;;;23.70;47.20;;;;;;5060439;28;20169;-60
2022/07/19 01:50:41;;;;;;;2.20;2.00;;;23.70;47.30;;;;;;5067033;28;20205;-71
2022/07/19 01:53:07;;;;;;;1.70;1.60;;;23.70;47.40;;;;;;5064211;28;20510;-67
2022/07/19 01:55:33;;;;;;;2.00;1.90;;;23.70;47.30;;;;;;5069325;28;20311;-58
2022/07/19 01:58:03;;;;;;;1.70;1.60;;;23.70;47.30;;;;;;5068805;28;20571;-65
2022/07/19 02:00:29;;;;;;;2.00;1.90;;;23.80;47.40;;;;;;5068652;28;21015;-71
2022/07/19 02:02:55;;;;;;;1.87;1.77;;;23.70;47.30;;;;;;5061836;28;20431;-70
2022/07/19 02:05:24;;;;;;;2.00;1.80;;;23.70;47.30;;;;;;5060897;28;20500;-68
2022/07/19 02:07:51;;;;;;;2.07;1.80;;;23.70;47.40;;;;;;5060157;28;20196;-62
2022/07/19 02:10:17;;;;;;;1.77;1.67;;;23.80;47.40;;;;;;5061212;28;22593;-58
2022/07/19 02:12:43;;;;;;;1.97;1.87;;;23.70;47.30;;;;;;5070211;28;20438;-57
2022/07/19 02:15:10;;;;;;;2.33;1.77;;;23.70;47.30;;;;;;5064702;28;20748;-58
2022/07/19 02:17:36;;;;;;;1.77;1.67;;;23.70;47.30;;;;;;5060950;28;20251;-70
2022/07/19 02:20:01;;;;;;;1.90;1.80;;;23.70;47.40;;;;;;5059730;28;20465;-61
2022/07/19 02:22:27;;;;;;;2.20;2.10;;;23.70;47.30;;;;;;5060705;28;20429;-63
2022/07/19 02:24:55;;;;;;;1.80;1.70;;;23.70;47.40;;;;;;5059551;28;20189;-64
2022/07/19 02:27:22;;;;;;;2.23;1.87;;;23.70;47.40;;;;;;5065243;28;20702;-69
2022/07/19 02:29:48;;;;;;;1.80;1.70;;;23.70;47.30;;;;;;5071665;28;20430;-59
2022/07/19 02:32:14;;;;;;;1.87;1.77;;;23.70;47.40;;;;;;5064251;28;20474;-61
2022/07/19 02:34:40;;;;;;;1.80;1.70;;;23.70;47.30;;;;;;5061440;28;20539;-59
2022/07/19 02:37:06;;;;;;;2.03;1.93;;;23.70;47.50;;;;;;5060854;28;20230;-58
2022/07/19 02:39:31;;;;;;;1.97;1.87;;;23.70;47.30;;;;;;5066782;28;20190;-57
2022/07/19 02:41:58;;;;;;;1.67;1.57;;;23.70;47.30;;;;;;5060767;28;20274;-62
2022/07/19 02:44:24;;;;;;;1.90;1.80;;;23.70;47.30;;;;;;5067664;28;20172;-68
2022/07/19 02:46:50;;;;;;;2.03;1.93;;;23.70;47.30;;;;;;5069064;28;22288;-60
2022/07/19 02:49:16;;;;;;;2.13;2.03;;;23.80;47.50;;;;;;5066016;28;20595;-64
2022/07/19 02:51:42;;;;;;;1.73;1.63;;;23.70;47.40;;;;;;5065204;28;20508;-60
2022/07/19 02:54:08;;;;;;;2.17;2.07;;;23.70;48.10;;;;;;5069713;28;20924;-62
2022/07/19 02:56:36;;;;;;;1.93;1.83;;;23.70;47.30;;;;;;5070794;28;20443;-57
2022/07/19 02:59:03;;;;;;;1.90;1.80;;;23.80;47.50;;;;;;5066553;28;20175;-58
2022/07/19 03:01:29;;;;;;;2.07;1.97;;;23.70;47.30;;;;;;5073032;28;20453;-57
2022/07/19 03:03:55;;;;;;;2.53;2.37;;;23.70;47.40;;;;;;5070445;28;20426;-69
2022/07/19 03:06:21;;;;;;;2.20;2.10;;;23.70;47.30;;;;;;5069673;28;20443;-61
2022/07/19 03:08:47;;;;;;;2.30;2.20;;;23.70;47.30;;;;;;5067945;28;20438;-73
2022/07/19 03:11:13;;;;;;;1.97;1.87;;;23.70;47.40;;;;;;5071267;28;20650;-59
2022/07/19 03:13:39;;;;;;;2.10;2.00;;;23.70;47.40;;;;;;5066103;28;20188;-58
2022/07/19 03:16:05;;;;;;;2.20;2.10;;;23.70;47.30;;;;;;5076342;28;20549;-64
2022/07/19 03:18:31;;;;;;;2.07;1.90;;;23.70;47.30;;;;;;5061936;28;20240;-64
2022/07/19 03:20:59;;;;;;;2.17;2.07;;;23.70;47.30;;;;;;5063007;28;20460;-59
2022/07/19 03:23:30;;;;;;;1.80;1.70;;;23.80;47.50;;;;;;5069861;28;20434;-62
2022/07/19 03:25:56;;;;;;;1.87;1.77;;;23.70;47.40;;;;;;5066828;28;20888;-58
2022/07/19 03:28:23;;;;;;;1.97;1.87;;;23.70;47.50;;;;;;5068421;28;20425;-59
2022/07/19 03:30:48;;;;;;;2.10;2.00;;;23.70;47.30;;;;;;5068917;28;20177;-61
2022/07/19 03:33:17;;;;;;;1.80;1.70;;;23.70;47.40;;;;;;5065842;28;20433;-64
2022/07/19 03:35:44;;;;;;;2.00;1.90;;;23.70;47.40;;;;;;5066532;28;22437;-60
2022/07/19 03:38:15;;;;;;;1.90;1.80;;;23.70;47.40;;;;;;5064993;28;20436;-59
2022/07/19 03:40:40;;;;;;;1.80;1.70;;;23.70;47.40;;;;;;5065280;28;21330;-62
2022/07/19 03:43:08;;;;;;;2.30;2.20;;;23.70;47.40;;;;;;5062360;28;21219;-72
2022/07/19 03:45:34;;;;;;;1.90;1.80;;;23.70;47.40;;;;;;5064664;28;20181;-59
2022/07/19 03:48:00;;;;;;;2.40;2.30;;;23.80;47.50;;;;;;5071102;28;20450;-57
2022/07/19 03:50:27;;;;;;;1.90;1.80;;;23.80;47.50;;;;;;5061515;28;20851;-70
2022/07/19 03:52:54;;;;;;;1.90;1.80;;;23.70;47.40;;;;;;5062778;28;20457;-69
2022/07/19 03:55:19;;;;;;;2.33;2.23;;;23.70;47.40;;;;;;5066998;28;20983;-60
2022/07/19 03:57:46;;;;;;;2.27;2.17;;;23.80;47.50;;;;;;5068252;28;20433;-60
2022/07/19 04:00:12;;;;;;;2.30;2.20;;;23.70;47.30;;;;;;5061760;28;22007;-60
2022/07/19 04:02:38;;;;;;;1.70;1.60;;;23.70;47.40;;;;;;5073060;28;21138;-59
2022/07/19 04:05:04;;;;;;;2.30;2.20;;;23.70;47.50;;;;;;5069106;28;20567;-64
2022/07/19 04:07:30;;;;;;;2.00;1.90;;;23.70;47.40;;;;;;5068179;28;20188;-58
2022/07/19 04:09:55;;;;;;;1.87;1.77;;;23.70;47.30;;;;;;5067030;28;21818;-61
2022/07/19 04:12:21;;;;;;;1.93;1.83;;;23.70;47.40;;;;;;5065866;28;20276;-61
2022/07/19 04:14:47;;;;;;;1.80;1.70;;;23.70;47.30;;;;;;5063468;28;20191;-64
2022/07/19 04:17:13;;;;;;;2.00;1.90;;;23.70;47.30;;;;;;5066510;28;20217;-58
2022/07/19 04:19:38;;;;;;;2.27;2.17;;;23.70;47.40;;;;;;5068707;28;20557;-67
2022/07/19 04:22:04;;;;;;;1.80;1.70;;;23.70;47.40;;;;;;5065757;28;20178;-58
2022/07/19 04:24:29;;;;;;;1.83;1.73;;;23.70;47.30;;;;;;5069022;28;20217;-63
2022/07/19 04:26:55;;;;;;;2.37;2.27;;;23.70;47.40;;;;;;5062446;28;20205;-73
2022/07/19 04:29:20;;;;;;;2.00;1.90;;;23.70;47.50;;;;;;5062275;28;20888;-67
2022/07/19 04:31:47;;;;;;;2.00;1.80;;;23.70;47.50;;;;;;5066117;28;20246;-62
2022/07/19 04:34:13;;;;;;;2.53;2.43;;;23.70;47.30;;;;;;5070220;28;20170;-58
2022/07/19 04:36:38;;;;;;;2.20;2.10;;;23.70;47.30;;;;;;5067845;28;20445;-73
2022/07/19 04:39:04;;;;;;;2.10;2.00;;;23.70;47.40;;;;;;5064275;28;20181;-63
2022/07/19 04:41:30;;;;;;;1.90;1.80;;;23.70;47.40;;;;;;5061591;28;20202;-67
2022/07/19 04:43:55;;;;;;;1.80;1.70;;;23.70;47.40;;;;;;5062102;28;20198;-72
2022/07/19 04:46:21;;;;;;;2.07;1.97;;;23.70;47.50;;;;;;5065678;28;20185;-64
2022/07/19 04:48:47;;;;;;;2.20;2.10;;;23.80;47.50;;;;;;5067160;28;20177;-64
2022/07/19 04:51:13;;;;;;;2.00;1.90;;;23.70;47.40;;;;;;5060470;28;21193;-62
2022/07/19 04:53:38;;;;;;;2.30;2.20;;;23.80;47.60;;;;;;5057605;28;21357;-70
2022/07/19 04:56:04;;;;;;;2.07;1.97;;;23.70;47.40;;;;;;5066968;28;22191;-59
2022/07/19 04:58:30;;;;;;;2.57;2.47;;;23.70;47.30;;;;;;5067494;28;20188;-60
2022/07/19 05:00:55;;;;;;;2.60;2.40;;;23.70;47.40;;;;;;5061722;28;20270;-65
2022/07/19 05:03:21;;;;;;;2.67;2.57;;;23.70;47.40;;;;;;5070582;28;20242;-66
2022/07/19 05:05:47;;;;;;;3.10;2.90;;;23.80;47.50;;;;;;5064182;28;20173;-64
2022/07/19 05:08:13;;;;;;;3.23;3.03;;;23.70;47.40;;;;;;5070863;28;20314;-61
2022/07/19 05:10:39;;;;;;;2.70;2.60;;;23.70;47.30;;;;;;5062352;28;20185;-70
2022/07/19 05:13:05;;;;;;;3.17;2.97;;;23.80;47.60;;;;;;5061784;28;20445;-60
2022/07/19 05:15:30;;;;;;;2.60;2.50;;;23.70;47.40;;;;;;5061712;28;20294;-58
2022/07/19 05:17:56;;;;;;;2.83;2.67;;;23.70;47.30;;;;;;5068678;28;20238;-64
2022/07/19 05:20:22;;;;;;;2.60;2.50;;;23.70;47.30;;;;;;5061113;28;20210;-69
2022/07/19 05:22:50;;;;;;;3.33;3.13;;;23.70;47.30;;;;;;5061495;28;20276;-67
2022/07/19 05:25:16;;;;;;;2.93;2.73;;;23.70;47.30;;;;;;5061499;28;21242;-71
2022/07/19 05:27:44;;;;;;;2.70;2.60;;;23.70;47.40;;;;;;5061435;28;20548;-67
2022/07/19 05:30:10;;;;;;;3.03;2.83;;;23.70;47.50;;;;;;5063333;28;20880;-71
2022/07/19 05:32:36;;;;;;;3.13;2.93;;;23.70;47.50;;;;;;5064373;28;20432;-59
2022/07/19 05:35:02;;;;;;;2.63;2.53;;;23.70;47.40;;;;;;5066054;28;21725;-58
2022/07/19 05:37:28;;;;;;;2.47;2.37;;;23.70;47.30;;;;;;5064053;28;20450;-64
2022/07/19 05:39:54;;;;;;;2.20;2.10;;;23.80;47.50;;;;;;5066348;28;20955;-63
2022/07/19 05:42:19;;;;;;;2.43;2.30;;;23.80;47.50;;;;;;5064852;28;20231;-60
2022/07/19 05:44:45;;;;;;;2.60;2.50;;;23.70;47.40;;;;;;5060480;28;20202;-68
2022/07/19 05:47:11;;;;;;;2.83;2.63;;;23.70;47.40;;;;;;5062353;28;20246;-69
2022/07/19 05:49:36;;;;;;;2.77;2.63;;;23.70;47.40;;;;;;5069557;28;20900;-59
2022/07/19 05:52:03;;;;;;;2.80;2.60;;;23.70;47.40;;;;;;5060354;28;20426;-58
2022/07/19 05:54:28;;;;;;;2.40;2.30;;;23.70;47.40;;;;;;5060713;28;20205;-67
2022/07/19 05:56:54;;;;;;;2.40;2.30;;;23.70;47.40;;;;;;5059559;28;20465;-69
2022/07/19 05:59:22;;;;;;;2.30;2.20;;;23.80;47.50;;;;;;5061159;28;20186;-57
2022/07/19 06:01:49;;;;;;;2.60;2.43;;;23.70;47.30;;;;;;5067125;28;20243;-60
2022/07/19 06:04:14;;;;;;;2.33;2.23;;;23.70;47.40;;;;;;5073852;28;20435;-63
2022/07/19 06:06:40;;;;;;;2.17;2.07;;;23.80;47.50;;;;;;5063259;28;20467;-60
2022/07/19 06:09:11;;;;;;;2.40;2.30;;;23.80;47.50;;;;;;5062009;28;20644;-69
2022/07/19 06:11:39;;;;;;;2.40;2.30;;;23.70;47.50;;;;;;5062143;28;20299;-61
2022/07/19 06:14:08;;;;;;;2.47;2.37;;;23.70;47.40;;;;;;5060643;28;20505;-61
2022/07/19 06:16:34;;;;;;;2.50;2.40;;;23.70;47.30;;;;;;5062115;28;22154;-64
2022/07/19 06:19:00;;;;;;;2.20;2.10;;;23.80;47.50;;;;;;5063732;28;20481;-58
2022/07/19 06:21:26;;;;;;;2.33;2.23;;;23.70;47.30;;;;;;5067580;28;20453;-60
2022/07/19 06:23:51;;;;;;;2.20;2.10;;;23.70;47.40;;;;;;5059400;28;20250;-64
2022/07/19 06:26:17;;;;;;;2.40;2.30;;;23.80;47.50;;;;;;5062542;28;20208;-64
2022/07/19 06:28:44;;;;;;;2.10;2.00;;;23.80;47.50;;;;;;5059173;28;20207;-60
2022/07/19 06:31:11;;;;;;;2.47;2.37;;;23.80;47.50;;;;;;5060048;28;20947;-59
2022/07/19 06:33:40;;;;;;;2.20;2.10;;;23.80;47.50;;;;;;5061027;28;20475;-63
2022/07/19 06:36:06;;;;;;;2.53;2.43;;;23.70;47.30;;;;;;5068621;28;20824;-60
2022/07/19 06:38:32;;;;;;;2.30;2.20;;;23.70;47.50;;;;;;5064768;28;20452;-70
2022/07/19 06:40:58;;;;;;;2.37;2.27;;;23.80;47.50;;;;;;5060626;28;20201;-71
2022/07/19 06:43:24;;;;;;;2.10;2.00;;;23.70;47.40;;;;;;5062862;28;20272;-68
2022/07/19 06:45:49;;;;;;;2.30;2.20;;;23.80;47.50;;;;;;5061753;28;20988;-65
2022/07/19 06:48:15;;;;;;;2.20;2.10;;;23.70;47.30;;;;;;5061769;28;22213;-67
2022/07/19 06:50:40;;;;;;;2.07;1.97;;;23.70;47.50;;;;;;5065744;28;20189;-62
2022/07/19 06:53:06;;;;;;;2.53;2.43;;;23.80;47.40;;;;;;5060059;28;20190;-70
2022/07/19 06:55:32;;;;;;;2.20;2.10;;;23.80;47.40;;;;;;5065109;28;20352;-58
2022/07/19 06:57:57;;;;;;;2.10;2.00;;;23.70;47.50;;;;;;5060017;28;20180;-60
2022/07/19 07:00:24;;;;;;;2.03;1.93;;;23.70;47.30;;;;;;5062541;28;20388;-58
2022/07/19 07:02:49;;;;;;;2.60;2.30;;;23.80;47.40;;;;;;5062454;28;20185;-58
2022/07/19 07:05:15;;;;;;;1.90;1.80;;;23.80;47.40;;;;;;5059402;28;21866;-63
2022/07/19 07:07:41;;;;;;;1.93;1.83;;;23.80;47.30;;;;;;5073848;28;20235;-62
2022/07/19 07:10:08;;;;;;;2.20;2.10;;;23.80;47.30;;;;;;5067498;28;20911;-71
2022/07/19 07:12:34;;;;;;;2.10;2.00;;;23.80;47.40;;;;;;5064301;28;20728;-57
2022/07/19 07:15:00;;;;;;;2.17;2.07;;;23.80;47.40;;;;;;5065414;28;20431;-70
2022/07/19 07:17:26;;;;;;;2.20;2.10;;;23.80;47.30;;;;;;5066636;28;20805;-58
2022/07/19 07:19:53;;;;;;;2.20;2.10;;;23.70;47.20;;;;;;5062715;28;20442;-60
2022/07/19 07:22:18;;;;;;;1.80;1.70;;;23.80;47.40;;;;;;5066374;28;20210;-58
2022/07/19 07:24:44;;;;;;;2.00;1.90;;;23.80;47.30;;;;;;5065583;28;20562;-58
2022/07/19 07:27:10;;;;;;;2.00;1.90;;;23.80;47.30;;;;;;5059477;28;20182;-73
2022/07/19 07:29:36;;;;;;;2.03;1.93;;;23.80;47.30;;;;;;5061676;28;20203;-62
2022/07/19 07:32:02;;;;;;;2.10;2.00;;;23.80;47.30;;;;;;5059771;28;20181;-63
2022/07/19 07:34:29;;;;;;;1.77;1.67;;;23.80;47.30;;;;;;5064080;28;20526;-61
2022/07/19 07:36:54;;;;;;;2.00;1.90;;;23.80;47.30;;;;;;5076522;28;20187;-63
2022/07/19 07:39:20;;;;;;;1.80;1.70;;;23.80;47.20;;;;;;5073426;28;20422;-70
2022/07/19 07:41:45;;;;;;;2.13;2.03;;;23.80;47.30;;;;;;5063531;28;20233;-71
2022/07/19 07:44:11;;;;;;;2.20;2.10;;;23.80;47.20;;;;;;5062512;28;20191;-73
2022/07/19 07:46:37;;;;;;;2.20;2.10;;;23.80;47.20;;;;;;5063427;28;21157;-73
2022/07/19 07:49:03;;;;;;;1.83;1.73;;;23.80;47.30;;;;;;5071440;28;20532;-61
2022/07/19 07:51:29;;;;;;;1.70;1.60;;;23.80;47.20;;;;;;5062991;28;20177;-60
2022/07/19 07:53:55;;;;;;;2.10;2.00;;;23.80;47.30;;;;;;5073006;28;20432;-62
2022/07/19 07:56:21;;;;;;;2.30;2.00;;;23.80;47.20;;;;;;5071424;28;20230;-62
2022/07/19 07:58:47;;;;;;;1.97;1.87;;;23.80;47.30;;;;;;5070542;28;20185;-64
2022/07/19 08:01:12;;;;;;;2.70;2.50;;;23.80;47.30;;;;;;5067285;28;20212;-61
2022/07/19 08:03:38;;;;;;;1.97;1.87;;;23.80;47.30;;;;;;5071352;28;20499;-61
2022/07/19 08:06:04;;;;;;;2.00;1.90;;;23.80;47.30;;;;;;5066823;28;20182;-58
2022/07/19 08:08:30;;;;;;;2.90;2.10;;;23.80;47.20;;;;;;5074226;28;20177;-69
2022/07/19 08:10:58;;;;;;;2.00;1.90;;;23.80;47.20;;;;;;5062327;28;20188;-58
2022/07/19 08:13:24;;;;;;;1.90;1.80;;;23.80;47.20;;;;;;5062554;28;21467;-65
2022/07/19 08:15:51;;;;;;;2.10;1.97;;;23.80;47.20;;;;;;5066345;28;20429;-67
2022/07/19 08:18:17;;;;;;;2.30;2.10;;;23.80;47.20;;;;;;5063283;28;20688;-61
2022/07/19 08:20:43;;;;;;;2.10;2.00;;;23.80;47.10;;;;;;5068824;28;20598;-67
2022/07/19 08:23:09;;;;;;;2.07;1.97;;;23.80;47.10;;;;;;5067368;28;20476;-57
2022/07/19 08:25:36;;;;;;;1.80;1.70;;;23.80;47.20;;;;;;5073582;28;20969;-61
2022/07/19 08:28:03;;;;;;;1.90;1.80;;;23.80;47.20;;;;;;5068817;28;20190;-59
2022/07/19 08:30:30;;;;;;;1.97;1.87;;;23.80;47.10;;;;;;5068666;28;20453;-64
2022/07/19 08:32:56;;;;;;;1.93;1.83;;;23.80;47.20;;;;;;5066197;28;20427;-57
2022/07/19 08:35:23;;;;;;;1.97;1.87;;;23.80;47.10;;;;;;5062952;28;20441;-72
2022/07/19 08:37:50;;;;;;;2.23;2.13;;;23.80;47.10;;;;;;5067620;28;20764;-67
2022/07/19 08:40:16;;;;;;;2.00;1.90;;;23.80;47.10;;;;;;5075190;28;20964;-60
2022/07/19 08:42:42;;;;;;;2.27;2.00;;;23.80;47.90;;;;;;5063938;28;20432;-69
2022/07/19 08:45:10;;;;;;;1.70;1.60;;;23.80;47.10;;;;;;5061458;28;20725;-62
2022/07/19 08:47:37;;;;;;;2.37;2.20;;;23.80;47.20;;;;;;5068578;28;20445;-71
2022/07/19 08:50:06;;;;;;;2.00;1.90;;;23.80;47.20;;;;;;5063285;28;20519;-67
2022/07/19 08:52:33;;;;;;;2.00;1.90;;;23.80;47.20;;;;;;5061765;28;20491;-59
2022/07/19 08:54:59;;;;;;;2.00;1.90;;;23.80;47.10;;;;;;5067032;28;20427;-61
2022/07/19 09:00:11;;;;;;;1.80;1.70;;;23.80;47.20;;;;;;5061621;28;20468;-60
2022/07/19 09:02:37;;;;;;;2.53;2.33;;;23.80;47.10;;;;;;5064254;28;20442;-61
2022/07/19 09:05:08;;;;;;;1.93;1.83;;;23.80;47.10;;;;;;5062185;28;21176;-57
2022/07/19 09:07:36;;;;;;;1.80;1.70;;;23.80;47.20;;;;;;5061555;28;20177;-72
2022/07/19 09:10:22;;;;;;;2.00;1.90;;;23.80;47.10;;;;;;5071716;28;20440;-57
2022/07/19 09:13:10;;;;;;;2.00;1.90;;;23.80;47.10;;;;;;5062456;28;20437;-63
2022/07/19 09:15:47;;;;;;;2.07;1.97;;;23.80;47.10;;;;;;5062198;28;20450;-68
2022/07/19 09:18:16;;;;;;;2.20;2.10;;;23.80;47.30;;;;;;5061396;28;20564;-64
2022/07/19 09:20:44;;;;;;;1.90;1.80;;;23.80;47.20;;;;;;5061630;28;20517;-59
2022/07/19 09:23:10;;;;;;;2.10;2.00;;;23.80;47.20;;;;;;5067940;28;20438;-61
2022/07/19 09:25:50;;;;;;;2.10;2.00;;;23.80;47.20;;;;;;5068792;28;20491;-57
2022/07/19 09:28:18;;;;;;;2.10;2.00;;;23.80;47.20;;;;;;5061855;28;20924;-60
2022/07/19 09:30:45;;;;;;;1.93;1.83;;;23.80;47.20;;;;;;5067026;28;20473;-62
2022/07/19 09:33:31;;;;;;;2.17;2.07;;;23.80;47.20;;;;;;5062443;28;20433;-68
2022/07/19 09:36:03;;;;;;;2.03;1.93;;;23.80;47.20;;;;;;5063467;28;20448;-59
2022/07/19 09:38:33;;;;;;;2.20;2.10;;;23.80;47.20;;;;;;5062646;28;20445;-58
2022/07/19 09:41:16;;;;;;;2.00;1.90;;;23.80;47.20;;;;;;5069896;28;20461;-61
2022/07/19 09:43:54;;;;;;;2.10;2.00;;;23.80;47.20;;;;;;5062013;28;20472;-62
2022/07/19 09:46:31;;;;;;;2.13;2.03;;;23.80;47.20;;;;;;5064320;28;21093;-58
2022/07/19 09:49:05;;;;;;;2.20;1.97;;;23.80;47.20;;;;;;5062637;28;20893;-61
2022/07/19 09:51:37;;;;;;;2.13;2.03;;;23.80;47.20;;;;;;5064841;28;20433;-59
2022/07/19 09:54:05;;;;;;;1.80;1.70;;;23.80;47.20;;;;;;5066370;28;21282;-72
2022/07/19 09:56:31;;;;;;;1.93;1.83;;;23.80;47.20;;;;;;5072939;28;20950;-57
2022/07/19 09:58:58;;;;;;;1.83;1.73;;;23.80;47.20;;;;;;5065370;28;20511;-72
2022/07/19 10:01:29;;;;;;;2.00;1.90;;;23.80;47.20;;;;;;5065548;28;20462;-69
2022/07/19 10:03:57;;;;;;;2.20;2.00;;;23.80;47.20;;;;;;5064739;28;20512;-60
2022/07/19 10:06:26;;;;;;;1.90;1.80;;;23.80;47.20;;;;;;5061910;28;20425;-58
2022/07/19 10:08:56;;;;;;;2.13;2.03;;;23.80;47.20;;;;;;5066381;28;20434;-69
2022/07/19 10:11:22;;;;;;;2.50;2.30;;;23.80;47.20;;;;;;5064304;28;20858;-64
2022/07/19 10:13:52;;;;;;;2.00;1.90;;;23.80;47.20;;;;;;5067334;28;20438;-70
2022/07/19 10:16:50;;;;;;;2.30;2.20;;;23.90;47.20;;;;;;5061739;28;20418;-63
2022/07/19 10:19:39;;;;;;;1.70;1.60;;;23.80;47.20;;;;;;5061120;28;20473;-71
2022/07/19 10:22:10;;;;;;;2.27;2.17;;;23.80;48.00;;;;;;5059824;28;20473;-61
2022/07/19 10:24:47;;;;;;;2.10;2.00;;;23.80;47.20;;;;;;5066461;28;20430;-71
2022/07/19 10:27:16;;;;;;;2.30;2.20;;;23.80;47.20;;;;;;5067426;28;20425;-57
2022/07/19 10:29:42;;;;;;;2.23;2.13;;;23.80;47.20;;;;;;5068326;28;20418;-58
2022/07/19 10:32:13;;;;;;;1.90;1.80;;;23.80;47.20;;;;;;5063919;28;20452;-62
2022/07/19 10:34:41;;;;;;;2.03;1.93;;;23.80;47.20;;;;;;5064403;28;20554;-71
2022/07/19 10:37:08;;;;;;;2.53;2.20;;;23.80;47.20;;;;;;5065515;28;20502;-67
2022/07/19 10:39:39;;;;;;;1.93;1.83;;;23.90;47.30;;;;;;5062910;28;20516;-60
2022/07/19 10:42:19;;;;;;;2.23;2.13;;;23.80;47.10;;;;;;5063615;28;20461;-59
2022/07/19 10:44:54;;;;;;;2.70;2.50;;;23.90;47.20;;;;;;5066853;28;20437;-57
2022/07/19 10:47:42;;;;;;;2.00;1.90;;;23.80;47.20;;;;;;5066275;28;20434;-69
2022/07/19 10:50:19;;;;;;;2.00;1.90;;;23.80;47.10;;;;;;5055338;28;20481;-72
2022/07/19 10:52:45;;;;;;;1.90;1.80;;;23.80;47.10;;;;;;5060176;28;20434;-61
2022/07/19 10:57:45;;;;;;;2.07;1.97;;;23.90;47.20;;;;;;5069653;28;20436;-58
2022/07/19 11:00:23;;;;;;;2.13;2.03;;;23.80;47.10;;;;;;5061690;28;23816;-57
2022/07/19 11:02:50;;;;;;;2.07;1.97;;;23.90;47.20;;;;;;5061219;28;20430;-60
2022/07/19 11:05:27;;;;;;;2.00;1.90;;;23.80;47.10;;;;;;5059766;28;21215;-67
2022/07/19 11:07:56;;;;;;;2.17;1.97;;;23.80;47.00;;;;;;5060795;28;20507;-71
2022/07/19 11:10:27;;;;;;;2.00;1.90;;;23.80;47.10;;;;;;5063586;28;20430;-68
2022/07/19 11:12:54;;;;;;;2.07;1.97;;;23.80;47.00;;;;;;5073720;28;20439;-57
2022/07/19 11:15:21;;;;;;;1.90;1.80;;;23.90;47.20;;;;;;5068715;28;20984;-64
2022/07/19 11:17:55;;;;;;;1.97;1.87;;;23.80;47.10;;;;;;5068452;28;21135;-72
2022/07/19 11:20:30;;;;;;;2.10;2.00;;;23.80;47.00;;;;;;5066538;28;20553;-64
2022/07/19 11:22:57;;;;;;;2.10;2.00;;;23.80;47.00;;;;;;5064128;28;20423;-69
2022/07/19 11:25:44;;;;;;;2.10;2.00;;;23.90;47.10;;;;;;5065275;28;20426;-70
2022/07/19 11:28:25;;;;;;;1.90;1.80;;;23.90;47.10;;;;;;5071035;28;20867;-58
2022/07/19 11:30:52;;;;;;;2.17;2.07;;;23.80;47.00;;;;;;5067609;28;20436;-61
2022/07/19 11:33:20;;;;;;;2.20;2.10;;;23.80;47.00;;;;;;5063838;28;20495;-73
2022/07/19 11:36:16;;;;;;;1.93;1.83;;;23.90;47.10;;;;;;5063488;28;21304;-67
2022/07/19 11:38:43;;;;;;;2.07;1.97;;;23.90;47.10;;;;;;5068140;28;20485;-73
2022/07/19 11:41:18;;;;;;;2.00;1.90;;;23.80;47.00;;;;;;5062826;28;20489;-66
2022/07/19 11:44:04;;;;;;;2.10;2.00;;;23.90;47.10;;;;;;5069123;28;20423;-59
2022/07/19 11:46:37;;;;;;;1.90;1.80;;;23.90;47.10;;;;;;5066786;28;20442;-57
2022/07/19 11:49:06;;;;;;;1.93;1.83;;;23.80;46.90;;;;;;5064712;28;20436;-67
2022/07/19 11:51:33;;;;;;;2.03;1.93;;;23.80;46.90;;;;;;5067499;28;20508;-64
2022/07/19 11:54:01;;;;;;;2.00;1.90;;;23.80;46.90;;;;;;5064064;28;21889;-64
2022/07/19 11:56:29;;;;;;;1.97;1.87;;;23.80;46.90;;;;;;5072301;28;20476;-60
2022/07/19 11:58:57;;;;;;;2.20;2.00;;;23.80;46.90;;;;;;5067092;28;20927;-57
2022/07/19 12:01:47;;;;;;;2.13;2.03;;;23.90;47.00;;;;;;5070952;28;20464;-61
2022/07/19 12:04:13;;;;;;;2.10;2.00;;;23.90;47.00;;;;;;5063421;28;20467;-70
2022/07/19 12:06:48;;;;;;;2.10;2.00;;;23.90;47.00;;;;;;5062474;28;20527;-70
2022/07/19 12:09:27;;;;;;;1.80;1.70;;;23.80;46.80;;;;;;5069596;28;20777;-61
2022/07/19 12:11:55;;;;;;;2.13;2.03;;;23.90;46.90;;;;;;5070201;28;20579;-59
2022/07/19 12:14:30;;;;;;;2.00;1.90;;;23.80;46.80;;;;;;5071070;28;20489;-60
2022/07/19 12:17:17;;;;;;;2.07;1.97;;;23.80;46.80;;;;;;5082818;28;20505;-70
2022/07/19 12:19:45;;;;;;;1.60;1.50;;;23.80;46.80;;;;;;5063371;28;20480;-62
2022/07/19 12:22:33;;;;;;;2.00;1.90;;;23.80;46.80;;;;;;5063379;28;20461;-61
2022/07/19 12:24:58;;;;;;;2.07;1.87;;;23.80;46.80;;;;;;5063949;28;20449;-63
2022/07/19 12:27:27;;;;;;;2.00;1.90;;;23.90;46.90;;;;;;5065905;28;20429;-70
2022/07/19 12:29:55;;;;;;;2.90;2.10;;;23.80;46.80;;;;;;5065046;28;20288;-61
2022/07/19 12:32:33;;;;;;;1.90;1.80;;;23.80;46.80;;;;;;5072557;28;20431;-63
2022/07/19 12:35:05;;;;;;;2.20;2.10;;;23.80;46.80;;;;;;5064801;28;20875;-72
2022/07/19 12:37:32;;;;;;;2.00;1.80;;;23.80;46.80;;;;;;5070099;28;20434;-67
2022/07/19 12:40:05;;;;;;;1.90;1.80;;;23.90;46.90;;;;;;5064896;28;21056;-60
2022/07/19 12:42:41;;;;;;;2.20;2.10;;;23.90;46.80;;;;;;5064322;28;20457;-62
2022/07/19 12:45:08;;;;;;;2.17;2.07;;;23.90;46.80;;;;;;5062612;28;20485;-69
2022/07/19 12:47:34;;;;;;;1.90;1.80;;;23.90;46.80;;;;;;5072896;28;20517;-64
2022/07/19 12:50:00;;;;;;;2.20;2.10;;;23.90;46.80;;;;;;5070503;28;20421;-63
2022/07/19 12:52:26;;;;;;;2.17;2.07;;;23.80;46.70;;;;;;5068881;28;20270;-60
2022/07/19 12:54:51;;;;;;;2.23;2.13;;;23.80;46.70;;;;;;5069438;28;20180;-71
2022/07/19 12:57:17;;;;;;;2.40;2.30;;;23.90;46.70;;;;;;5070322;28;20323;-73